Погода Протокина Горана 2 недели

Смоленская область, Россия

22 мая-03 июня
  • 22мая
    Сегодня
    +10°
    +24°
    Пасмурно, дожди с грозами
    ВремяПогодаТемператураВлажностьДавлениеВетер, м/сВероятность осадков
    00:00Ясно и безоблачно+11°C93 %749 мм2.3 м/с2 %
    03:00Ясно и безоблачно+9°C94 %750 мм2.1 м/с2 %
    06:00Ясно и безоблачно+11°C92 %750 мм2.2 м/с2 %
    09:00Ясно и безоблачно+19°C77 %751 мм1.6 м/с2 %
    12:00Ясно и безоблачно+23°C61 %751 мм2.3 м/с2 %
    15:00Пасмурно, дожди с грозами+22°C57 %750 мм1.7 м/с28 %
    18:00Небольшая облачность+22°C65 %750 мм2.6 м/с37 %
    21:00Практически безоблачно+17°C80 %751 мм2.0 м/с4 %
  • 23мая
    Четверг
    +7°
    +22°
    Ясно и безоблачно
    ВремяПогодаТемператураВлажностьДавлениеВетер, м/сВероятность осадков
    00:00Ясно и безоблачно+13°C52 %751 мм4.1 м/с1 %
    03:00Ясно и безоблачно+11°C56 %752 мм3.6 м/с1 %
    06:00Ясно и безоблачно+11°C62 %753 мм3.8 м/с2 %
    09:00Ясно и безоблачно+17°C57 %754 мм3.9 м/с2 %
    12:00Ясно и безоблачно+22°C44 %755 мм4.9 м/с1 %
    15:00Ясно и безоблачно+22°C41 %754 мм4.4 м/с2 %
    18:00Ясно и безоблачно+22°C42 %754 мм4.5 м/с3 %
    21:00Ясно и безоблачно+17°C49 %755 мм3.7 м/с1 %
  • 24мая
    Пятница
    +8°
    +22°
    Ясно и безоблачно
    ВремяПогодаТемператураВлажностьДавлениеВетер, м/сВероятность осадков
    00:00Ясно и безоблачно+12°C56 %756 мм3.5 м/с2 %
    03:00Ясно и безоблачно+10°C63 %757 мм3.3 м/с2 %
    06:00Ясно и безоблачно+9°C65 %758 мм3.4 м/с2 %
    09:00Практически безоблачно+15°C50 %758 мм4.0 м/с2 %
    12:00Ясно и безоблачно+20°C39 %758 мм4.0 м/с2 %
    15:00Ясно и безоблачно+21°C35 %758 мм3.6 м/с2 %
    18:00Ясно и безоблачно+21°C37 %757 мм3.3 м/с2 %
    21:00Ясно и безоблачно+15°C53 %757 мм2.9 м/с2 %
  • 25мая
    Суббота
    +8°
    +24°
    Ясно и безоблачно
    ВремяПогодаТемператураВлажностьДавлениеВетер, м/сВероятность осадков
    00:00Ясно и безоблачно+10°C65 %757 мм2.7 м/с2 %
    03:00Ясно и безоблачно+8°C74 %757 мм2.4 м/с2 %
    06:00Ясно и безоблачно+9°C76 %757 мм2.5 м/с2 %
    09:00Ясно и безоблачно+17°C61 %757 мм2.1 м/с2 %
    12:00Ясно и безоблачно+22°C47 %756 мм2.2 м/с2 %
    15:00Ясно и безоблачно+23°C42 %755 мм2.1 м/с2 %
    18:00Ясно и безоблачно+24°C43 %754 мм1.5 м/с7 %
    21:00Ясно и безоблачно+18°C64 %753 мм1.5 м/с2 %
Мы используем cookies
Соглашаюсь